createdAt,value
2019-04-22T00:00:57.689Z,13.30
2019-04-22T00:03:50.662Z,13.20
2019-04-22T00:06:56.324Z,13.00
2019-04-22T00:09:47.493Z,12.80
2019-04-22T00:12:35.476Z,12.60
2019-04-22T00:15:18.140Z,12.40
2019-04-22T00:18:16.574Z,12.30
2019-04-22T00:20:59.628Z,12.20
2019-04-22T00:23:49.623Z,12.10
2019-04-22T00:26:32.516Z,12.10
2019-04-22T00:32:11.600Z,11.80
2019-04-22T00:35:00.287Z,11.80
2019-04-22T00:37:53.262Z,11.80
2019-04-22T00:43:30.875Z,11.90
2019-04-22T00:46:10.961Z,11.90
2019-04-22T00:49:28.793Z,11.90
2019-04-22T00:54:28.192Z,11.90
2019-04-22T00:57:15.707Z,12.00
2019-04-22T01:00:05.557Z,12.00
2019-04-22T01:02:54.123Z,11.90
2019-04-22T01:05:43.846Z,11.90
2019-04-22T01:08:30.660Z,11.90
2019-04-22T01:11:16.900Z,11.80
2019-04-22T01:13:55.860Z,11.80
2019-04-22T01:16:44.227Z,11.70
2019-04-22T01:19:39.042Z,11.60
2019-04-22T01:22:21.975Z,11.50
2019-04-22T01:25:02.458Z,11.40
2019-04-22T01:27:50.278Z,11.40
2019-04-22T01:30:30.352Z,11.30
2019-04-22T01:33:14.083Z,11.30
2019-04-22T01:36:13.670Z,11.30
2019-04-22T01:39:03.846Z,11.30
2019-04-22T01:41:59.860Z,11.20
2019-04-22T01:44:40.443Z,11.20
2019-04-22T01:47:32.776Z,11.30
2019-04-22T01:50:18.951Z,11.20
2019-04-22T01:53:08.485Z,11.10
2019-04-22T01:55:52.044Z,11.10
2019-04-22T01:58:34.821Z,11.00
2019-04-22T02:01:35.800Z,11.00
2019-04-22T02:04:24.034Z,11.00
2019-04-22T02:06:57.703Z,10.90
2019-04-22T02:09:42.825Z,10.80
2019-04-22T02:12:35.387Z,10.70
2019-04-22T02:15:17.080Z,10.70
2019-04-22T02:18:18.301Z,10.70
2019-04-22T02:20:58.011Z,10.80
2019-04-22T02:26:35.802Z,10.90
2019-04-22T02:29:26.040Z,10.90
2019-04-22T02:32:21.282Z,10.90
2019-04-22T02:38:07.773Z,10.90
2019-04-22T02:40:53.011Z,10.90
2019-04-22T02:43:41.545Z,10.90
2019-04-22T02:49:11.671Z,11.00
2019-04-22T02:51:37.065Z,11.10
2019-04-22T02:54:44.270Z,11.20
2019-04-22T03:03:18.352Z,11.70
2019-04-22T03:05:42.014Z,11.80
2019-04-22T03:08:36.763Z,11.90
2019-04-22T03:14:01.436Z,12.10
2019-04-22T03:16:44.604Z,12.10
2019-04-22T03:19:46.834Z,12.20
2019-04-22T03:27:48.404Z,12.30
2019-04-22T03:30:53.497Z,12.40
2019-04-22T03:36:57.336Z,12.50
2019-04-22T03:39:33.453Z,12.60
2019-04-22T03:42:06.826Z,12.70
2019-04-22T03:45:00.383Z,12.80
2019-04-22T03:47:41.201Z,12.90
2019-04-22T03:50:22.700Z,12.90
2019-04-22T03:53:14.997Z,13.00
2019-04-22T03:55:46.716Z,13.00
2019-04-22T03:58:39.280Z,13.00
2019-04-22T04:01:30.444Z,13.00
2019-04-22T04:04:18.522Z,13.00
2019-04-22T04:12:33.949Z,13.10
2019-04-22T04:15:18.963Z,13.10
2019-04-22T04:21:00.660Z,13.10
2019-04-22T04:23:50.908Z,13.10
2019-04-22T04:26:37.733Z,13.10
2019-04-22T04:35:05.360Z,13.10
2019-04-22T04:43:07.752Z,13.20
2019-04-22T04:45:54.751Z,13.20
2019-04-22T04:57:02.517Z,13.30
2019-04-22T05:02:52.461Z,13.40
2019-04-22T05:08:16.728Z,13.50
2019-04-22T05:11:03.506Z,13.50
2019-04-22T05:16:32.599Z,13.60
2019-04-22T05:22:21.014Z,13.70
2019-04-22T05:24:53.710Z,13.80
2019-04-22T05:27:39.799Z,13.90
2019-04-22T05:33:07.376Z,14.00
2019-04-22T05:35:58.374Z,14.10
2019-04-22T05:38:52.303Z,14.20
2019-04-22T05:41:30.585Z,14.20
2019-04-22T05:44:20.754Z,14.40
2019-04-22T05:47:04.756Z,14.40
2019-04-22T05:49:45.758Z,14.60
2019-04-22T05:52:40.401Z,14.60
2019-04-22T05:55:33.239Z,14.70
2019-04-22T05:58:18.384Z,14.80
2019-04-22T06:03:59.230Z,14.90
2019-04-22T06:06:39.998Z,15.00
2019-04-22T06:09:30.204Z,15.10
2019-04-22T06:12:12.537Z,15.20
2019-04-22T06:15:08.220Z,15.30
2019-04-22T06:18:02.710Z,15.40
2019-04-22T06:20:57.556Z,15.50
2019-04-22T06:23:44.319Z,15.50
2019-04-22T06:26:45.792Z,15.50
2019-04-22T06:29:15.293Z,15.60
2019-04-22T06:32:17.913Z,15.60
2019-04-22T06:34:51.395Z,15.80
2019-04-22T06:37:37.969Z,15.80
2019-04-22T06:40:26.884Z,16.00
2019-04-22T06:43:10.242Z,16.00
2019-04-22T06:45:58.448Z,16.10
2019-04-22T06:48:44.100Z,16.20
2019-04-22T06:51:33.044Z,16.30
2019-04-22T06:54:21.850Z,16.40
2019-04-22T06:56:59.723Z,16.50
2019-04-22T06:59:52.080Z,16.60
2019-04-22T07:02:46.456Z,16.60
2019-04-22T07:05:25.010Z,16.80
2019-04-22T07:08:30.382Z,16.90
2019-04-22T07:10:54.802Z,17.00
2019-04-22T07:13:50.367Z,17.10
2019-04-22T07:19:20.640Z,17.20
2019-04-22T07:22:11.271Z,17.30
2019-04-22T07:24:53.762Z,17.40
2019-04-22T07:27:44.626Z,17.50
2019-04-22T07:33:28.163Z,17.60
2019-04-22T07:38:53.086Z,17.70
2019-04-22T07:41:37.889Z,17.80
2019-04-22T07:47:18.407Z,18.10
2019-04-22T07:50:23.397Z,18.10
2019-04-22T07:52:46.700Z,18.20
2019-04-22T07:55:32.706Z,18.20
2019-04-22T07:58:36.183Z,18.20
2019-04-22T08:01:14.073Z,18.30
2019-04-22T08:09:39.766Z,18.50
2019-04-22T08:12:21.667Z,18.70
2019-04-22T08:15:06.186Z,18.70
2019-04-22T08:20:41.525Z,18.90
2019-04-22T08:23:31.613Z,19.10
2019-04-22T08:26:25.942Z,19.10
2019-04-22T08:29:05.705Z,19.10
2019-04-22T08:32:11.135Z,19.10
2019-04-22T08:34:37.051Z,19.30
2019-04-22T08:40:12.625Z,19.50
2019-04-22T08:43:08.274Z,19.60
2019-04-22T08:45:54.619Z,19.70
2019-04-22T08:48:33.103Z,19.80
2019-04-22T08:51:23.468Z,19.90
2019-04-22T08:54:09.452Z,20.00
2019-04-22T08:56:52.347Z,20.00
2019-04-22T08:59:39.565Z,20.20
2019-04-22T09:05:22.502Z,20.50
2019-04-22T09:08:07.479Z,20.60
2019-04-22T09:10:51.924Z,20.80
2019-04-22T09:13:41.669Z,21.00
2019-04-22T09:16:28.223Z,21.20
2019-04-22T09:22:03.400Z,21.50
2019-04-22T09:24:40.808Z,21.40
2019-04-22T09:27:40.011Z,21.50
2019-04-22T09:30:20.439Z,21.70
2019-04-22T09:44:08.224Z,21.90
2019-04-22T09:50:03.733Z,22.20
2019-04-22T09:52:48.991Z,22.40
2019-04-22T09:55:28.466Z,22.50
2019-04-22T09:58:20.843Z,22.60
2019-04-22T10:01:19.128Z,22.60
2019-04-22T10:06:54.224Z,22.60
2019-04-22T10:12:30.361Z,22.80
2019-04-22T10:15:22.695Z,23.00
2019-04-22T10:18:09.313Z,22.90
2019-04-22T10:20:38.202Z,22.80
2019-04-22T10:23:34.564Z,22.80
2019-04-22T10:26:17.128Z,22.90
2019-04-22T10:29:05.951Z,22.90
2019-04-22T10:31:49.835Z,22.90
2019-04-22T10:34:23.522Z,23.00
2019-04-22T10:37:02.634Z,23.00
2019-04-22T10:39:55.105Z,23.00
2019-04-22T10:42:35.895Z,23.20
2019-04-22T10:45:21.926Z,23.20
2019-04-22T10:48:08.206Z,23.20
2019-04-22T10:50:53.029Z,23.30
2019-04-22T10:53:39.605Z,23.20
2019-04-22T10:56:25.273Z,23.20
2019-04-22T10:59:10.932Z,23.20
2019-04-22T11:01:56.014Z,23.30
2019-04-22T11:04:40.817Z,23.20
2019-04-22T11:07:37.322Z,23.10
2019-04-22T11:10:34.662Z,23.20
2019-04-22T11:13:05.042Z,23.10
2019-04-22T11:15:50.959Z,23.10
2019-04-22T11:18:37.814Z,23.10
2019-04-22T11:21:25.402Z,23.10
2019-04-22T11:24:10.623Z,23.10
2019-04-22T11:26:57.011Z,23.30
2019-04-22T11:29:43.591Z,23.30
2019-04-22T11:32:28.658Z,23.30
2019-04-22T11:35:15.852Z,23.10
2019-04-22T11:38:01.464Z,23.00
2019-04-22T11:40:51.685Z,23.10
2019-04-22T11:43:34.513Z,23.20
2019-04-22T11:46:23.084Z,23.30
2019-04-22T11:49:09.983Z,23.30
2019-04-22T11:51:56.059Z,23.40
2019-04-22T11:54:42.968Z,23.50
2019-04-22T11:57:28.899Z,23.60
2019-04-22T12:00:16.884Z,23.60
2019-04-22T12:03:03.201Z,23.50
2019-04-22T12:05:48.310Z,23.40
2019-04-22T12:08:34.046Z,23.40
2019-04-22T12:11:20.674Z,23.40
2019-04-22T12:14:06.543Z,23.60
2019-04-22T12:16:51.290Z,23.60
2019-04-22T12:19:36.172Z,23.60
2019-04-22T12:22:22.950Z,23.60
2019-04-22T12:25:10.679Z,23.70
2019-04-22T12:27:56.921Z,23.80
2019-04-22T12:30:43.501Z,23.90
2019-04-22T12:33:29.519Z,23.90
2019-04-22T12:36:15.390Z,24.00
2019-04-22T12:39:00.779Z,24.00
2019-04-22T12:41:46.448Z,24.20
2019-04-22T12:44:32.759Z,24.30
2019-04-22T12:47:19.978Z,24.40
2019-04-22T12:50:16.522Z,24.60
2019-04-22T12:53:01.310Z,24.70
2019-04-22T12:55:43.871Z,24.80
2019-04-22T12:58:29.815Z,24.70
2019-04-22T13:01:15.266Z,24.70
2019-04-22T13:04:05.810Z,24.90
2019-04-22T13:06:48.031Z,25.20
2019-04-22T13:09:33.535Z,25.40
2019-04-22T13:12:19.349Z,26.00
2019-04-22T13:15:11.711Z,26.90
2019-04-22T13:18:05.752Z,28.20
2019-04-22T13:20:44.626Z,29.70
2019-04-22T13:23:31.744Z,31.70
2019-04-22T13:26:17.045Z,32.30
2019-04-22T13:29:03.212Z,33.20
2019-04-22T13:31:48.959Z,34.60
2019-04-22T13:34:40.396Z,35.40
2019-04-22T13:37:23.258Z,36.20
2019-04-22T13:40:10.896Z,36.20
2019-04-22T13:42:58.667Z,36.50
2019-04-22T13:45:43.807Z,35.30
2019-04-22T13:48:46.384Z,34.50
2019-04-22T13:51:45.207Z,33.40
2019-04-22T13:54:48.186Z,32.40
2019-04-22T13:57:14.817Z,32.00
2019-04-22T13:59:42.862Z,31.30
2019-04-22T14:02:32.747Z,30.80
2019-04-22T14:05:19.940Z,30.30
2019-04-22T14:08:07.908Z,29.90
2019-04-22T14:10:52.529Z,29.50
2019-04-22T14:13:37.998Z,29.20
2019-04-22T14:16:22.901Z,29.10
2019-04-22T14:19:07.980Z,28.80
2019-04-22T14:21:53.850Z,28.30
2019-04-22T14:24:40.481Z,27.90
2019-04-22T14:27:39.692Z,27.50
2019-04-22T14:30:14.642Z,27.40
2019-04-22T14:33:00.377Z,27.20
2019-04-22T14:35:45.788Z,27.10
2019-04-22T14:38:32.407Z,26.60
2019-04-22T14:41:35.730Z,26.60
2019-04-22T14:45:05.166Z,26.60
2019-04-22T14:50:02.796Z,26.40
2019-04-22T14:52:47.551Z,26.70
2019-04-22T14:55:22.718Z,27.00
2019-04-22T14:58:01.203Z,27.40
2019-04-22T15:00:46.281Z,27.50
2019-04-22T15:03:31.651Z,27.50
2019-04-22T15:06:18.183Z,27.40
2019-04-22T15:09:06.172Z,27.30
2019-04-22T15:12:04.958Z,27.30
2019-04-22T15:14:39.579Z,27.50
2019-04-22T15:17:43.299Z,27.50
2019-04-22T15:20:51.959Z,27.60
2019-04-22T15:23:36.191Z,27.60
2019-04-22T15:26:22.284Z,27.60
2019-04-22T15:29:09.238Z,27.80
2019-04-22T15:31:55.554Z,28.10
2019-04-22T15:34:41.571Z,28.90
2019-04-22T15:37:28.276Z,29.80
2019-04-22T15:40:13.810Z,30.50
2019-04-22T15:42:59.276Z,30.80
2019-04-22T15:45:44.805Z,30.90
2019-04-22T15:48:32.294Z,30.50
2019-04-22T15:51:16.690Z,30.10
2019-04-22T15:54:01.564Z,29.60
2019-04-22T15:56:46.736Z,29.10
2019-04-22T15:59:50.479Z,28.70
2019-04-22T16:02:21.479Z,28.40
2019-04-22T16:05:06.820Z,28.50
2019-04-22T16:07:53.002Z,28.40
2019-04-22T16:10:38.168Z,28.80
2019-04-22T16:13:26.592Z,28.80
2019-04-22T16:16:10.357Z,28.80
2019-04-22T16:18:56.235Z,28.10
2019-04-22T16:21:49.069Z,28.30
2019-04-22T16:24:33.962Z,28.40
2019-04-22T16:27:22.840Z,28.70
2019-04-22T16:30:09.610Z,28.80
2019-04-22T16:33:09.909Z,29.10
2019-04-22T16:35:55.293Z,29.00
2019-04-22T16:38:40.804Z,29.30
2019-04-22T16:41:26.542Z,29.80
2019-04-22T16:44:12.327Z,30.10
2019-04-22T16:46:57.606Z,29.80
2019-04-22T16:49:43.706Z,29.10
2019-04-22T16:52:30.258Z,28.10
2019-04-22T16:55:16.971Z,27.40
2019-04-22T16:58:05.144Z,26.10
2019-04-22T17:00:50.393Z,25.40
2019-04-22T17:03:40.966Z,24.40
2019-04-22T17:06:29.785Z,23.90
2019-04-22T17:09:17.496Z,23.40
2019-04-22T17:12:01.812Z,23.10
2019-04-22T17:14:54.081Z,22.80
2019-04-22T17:17:33.893Z,22.50
2019-04-22T17:20:18.824Z,22.30
2019-04-22T17:23:05.433Z,22.00
2019-04-22T17:25:52.621Z,21.60
2019-04-22T17:28:37.724Z,21.30
2019-04-22T17:31:22.992Z,21.20
2019-04-22T17:34:09.588Z,21.00
2019-04-22T17:36:55.350Z,20.90
2019-04-22T17:39:47.748Z,20.80
2019-04-22T17:42:46.493Z,20.60
2019-04-22T17:45:40.220Z,20.50
2019-04-22T17:48:30.606Z,20.40
2019-04-22T17:51:30.084Z,20.30
2019-04-22T17:54:07.033Z,20.20
2019-04-22T17:56:54.130Z,20.10
2019-04-22T17:59:45.227Z,19.90
2019-04-22T18:02:27.933Z,19.80
2019-04-22T18:05:03.818Z,19.80
2019-04-22T18:08:10.040Z,19.70
2019-04-22T18:10:56.104Z,19.60
2019-04-22T18:13:40.956Z,19.40
2019-04-22T18:16:25.829Z,19.30
2019-04-22T18:19:15.418Z,19.20
2019-04-22T18:21:51.721Z,19.10
2019-04-22T18:24:43.675Z,19.10
2019-04-22T18:30:18.049Z,18.70
2019-04-22T18:33:08.652Z,18.60
2019-04-22T18:35:53.829Z,18.50
2019-04-22T18:38:56.159Z,18.40
2019-04-22T18:41:30.799Z,18.30
2019-04-22T18:44:22.761Z,18.20
2019-04-22T18:47:03.859Z,18.10
2019-04-22T18:49:49.354Z,18.00
2019-04-22T18:52:49.271Z,17.90
2019-04-22T18:55:36.573Z,17.80
2019-04-22T18:58:22.693Z,17.70
2019-04-22T19:00:54.781Z,17.70
2019-04-22T19:03:54.272Z,17.60
2019-04-22T19:06:52.349Z,17.60
2019-04-22T19:09:45.359Z,17.50
2019-04-22T19:15:21.084Z,17.40
2019-04-22T19:18:12.649Z,17.30
2019-04-22T19:20:52.005Z,17.20
2019-04-22T19:23:31.940Z,17.10
2019-04-22T19:26:30.448Z,17.10
2019-04-22T19:29:05.564Z,17.00
2019-04-22T19:31:57.299Z,17.00
2019-04-22T19:34:44.373Z,16.90
2019-04-22T19:37:28.811Z,16.90
2019-04-22T19:40:25.760Z,16.80
2019-04-22T19:43:09.138Z,16.80
2019-04-22T19:45:55.722Z,16.70
2019-04-22T19:48:50.064Z,16.60
2019-04-22T19:51:36.655Z,16.50
2019-04-22T19:54:13.523Z,16.50
2019-04-22T19:56:59.084Z,16.50
2019-04-22T19:59:51.168Z,16.40
2019-04-22T20:02:42.740Z,16.30
2019-04-22T20:05:48.013Z,16.30
2019-04-22T20:08:38.140Z,16.20
2019-04-22T20:11:22.787Z,16.20
2019-04-22T20:14:12.599Z,16.10
2019-04-22T20:16:53.374Z,16.10
2019-04-22T20:19:49.921Z,16.00
2019-04-22T20:22:29.870Z,15.90
2019-04-22T20:25:07.537Z,15.80
2019-04-22T20:28:07.498Z,15.80
2019-04-22T20:30:56.227Z,15.60
2019-04-22T20:33:46.866Z,15.60
2019-04-22T20:39:13.361Z,15.40
2019-04-22T20:42:16.701Z,15.40
2019-04-22T20:44:52.066Z,15.30
2019-04-22T20:47:35.729Z,15.20
2019-04-22T20:50:29.071Z,15.20
2019-04-22T20:53:18.947Z,15.20
2019-04-22T20:56:06.794Z,15.10
2019-04-22T20:58:54.003Z,15.00
2019-04-22T21:01:39.751Z,14.90
2019-04-22T21:04:17.101Z,14.90
2019-04-22T21:07:08.111Z,14.90
2019-04-22T21:09:57.957Z,14.80
2019-04-22T21:12:36.247Z,14.80
2019-04-22T21:15:39.406Z,14.70
2019-04-22T21:18:22.023Z,14.70
2019-04-22T21:21:13.808Z,14.60
2019-04-22T21:23:48.888Z,14.60
2019-04-22T21:26:39.734Z,14.50
2019-04-22T21:29:29.568Z,14.50
2019-04-22T21:32:21.683Z,14.40
2019-04-22T21:35:06.570Z,14.30
2019-04-22T21:37:57.799Z,14.30
2019-04-22T21:40:40.366Z,14.20
2019-04-22T21:43:30.044Z,14.20
2019-04-22T21:46:11.799Z,14.20
2019-04-22T21:48:59.971Z,14.10
2019-04-22T21:51:49.631Z,14.10
2019-04-22T21:54:36.598Z,14.10
2019-04-22T21:57:28.266Z,14.00
2019-04-22T22:00:25.262Z,14.00
2019-04-22T22:03:11.813Z,13.90
2019-04-22T22:05:44.321Z,13.90
2019-04-22T22:08:42.478Z,13.80
2019-04-22T22:11:24.606Z,13.80
2019-04-22T22:14:11.798Z,13.70
2019-04-22T22:16:53.362Z,13.70
2019-04-22T22:19:49.545Z,13.60
2019-04-22T22:22:45.574Z,13.60
2019-04-22T22:25:26.443Z,13.60
2019-04-22T22:28:33.292Z,13.50
2019-04-22T22:31:11.734Z,13.50
2019-04-22T22:33:48.161Z,13.40
2019-04-22T22:36:29.548Z,13.40
2019-04-22T22:39:14.179Z,13.40
2019-04-22T22:41:51.890Z,13.40
2019-04-22T22:44:43.217Z,13.30
2019-04-22T22:47:39.353Z,13.30
2019-04-22T22:50:34.795Z,13.20
2019-04-22T22:53:28.621Z,13.20
2019-04-22T22:56:04.815Z,13.10
2019-04-22T22:58:52.438Z,13.10
2019-04-22T23:01:40.779Z,13.00
2019-04-22T23:04:37.128Z,13.00
2019-04-22T23:07:24.255Z,13.00
2019-04-22T23:10:00.228Z,13.00
2019-04-22T23:12:56.032Z,12.90
2019-04-22T23:15:37.083Z,12.90
2019-04-22T23:18:05.793Z,12.90
2019-04-22T23:20:53.622Z,12.80
2019-04-22T23:23:57.738Z,12.80
2019-04-22T23:26:46.840Z,12.70
2019-04-22T23:29:39.521Z,12.70
2019-04-22T23:32:28.502Z,12.70
2019-04-22T23:35:33.224Z,12.60
2019-04-22T23:38:15.432Z,12.50
2019-04-22T23:41:05.162Z,12.50
2019-04-22T23:44:02.056Z,12.50
2019-04-22T23:46:42.651Z,12.40
2019-04-22T23:49:30.860Z,12.40
2019-04-22T23:52:24.342Z,12.40
2019-04-22T23:55:12.882Z,12.40
2019-04-22T23:57:57.038Z,12.40
